createdAt,value
2019-03-21T00:00:39.261Z,12.00
2019-03-21T00:01:39.249Z,12.00
2019-03-21T00:02:39.238Z,12.00
2019-03-21T00:03:39.226Z,12.00
2019-03-21T00:04:39.215Z,12.00
2019-03-21T00:05:39.243Z,12.00
2019-03-21T00:06:39.189Z,12.00
2019-03-21T00:07:39.178Z,12.00
2019-03-21T00:08:39.169Z,12.00
2019-03-21T00:09:39.158Z,12.00
2019-03-21T00:10:39.145Z,12.00
2019-03-21T00:11:39.146Z,12.00
2019-03-21T00:12:39.124Z,12.00
2019-03-21T00:13:46.420Z,12.00
2019-03-21T00:14:39.099Z,12.00
2019-03-21T00:15:39.092Z,12.00
2019-03-21T00:16:39.118Z,12.00
2019-03-21T00:17:39.063Z,12.00
2019-03-21T00:18:39.052Z,12.00
2019-03-21T00:19:39.043Z,12.00
2019-03-21T00:20:39.030Z,12.00
2019-03-21T00:21:39.016Z,12.00
2019-03-21T00:22:39.026Z,12.00
2019-03-21T00:23:38.995Z,12.00
2019-03-21T00:24:38.983Z,12.00
2019-03-21T00:25:38.978Z,12.00
2019-03-21T00:26:38.958Z,12.00
2019-03-21T00:27:38.949Z,12.00
2019-03-21T00:28:38.947Z,12.00
2019-03-21T00:29:38.925Z,12.00
2019-03-21T00:30:38.914Z,12.00
2019-03-21T00:31:38.904Z,12.00
2019-03-21T00:32:38.891Z,12.00
2019-03-21T00:33:38.887Z,12.00
2019-03-21T00:34:38.867Z,12.00
2019-03-21T00:35:38.859Z,12.00
2019-03-21T00:36:38.844Z,12.00
2019-03-21T00:37:38.837Z,12.00
2019-03-21T00:38:38.872Z,12.00
2019-03-21T00:39:38.810Z,12.00
2019-03-21T00:40:38.800Z,12.00
2019-03-21T00:41:38.786Z,12.00
2019-03-21T00:42:38.778Z,12.00
2019-03-21T00:43:38.763Z,12.00
2019-03-21T00:44:38.793Z,12.00
2019-03-21T00:45:45.130Z,12.00
2019-03-21T00:46:38.733Z,12.00
2019-03-21T00:47:38.723Z,12.00
2019-03-21T00:48:38.706Z,12.00
2019-03-21T00:49:38.693Z,12.00
2019-03-21T00:50:38.692Z,12.00
2019-03-21T00:51:38.673Z,12.00
2019-03-21T00:52:38.659Z,12.00
2019-03-21T00:53:38.650Z,12.00
2019-03-21T00:54:38.640Z,12.00
2019-03-21T00:55:38.643Z,12.00
2019-03-21T00:56:38.615Z,12.00
2019-03-21T00:57:38.605Z,12.00
2019-03-21T00:58:38.593Z,12.00
2019-03-21T00:59:38.579Z,12.00
2019-03-21T01:00:38.579Z,12.00
2019-03-21T01:01:38.595Z,12.00
2019-03-21T01:02:38.545Z,12.00
2019-03-21T01:03:38.532Z,12.00
2019-03-21T01:04:38.521Z,12.00
2019-03-21T01:05:38.511Z,12.00
2019-03-21T01:06:38.498Z,12.00
2019-03-21T01:07:38.498Z,12.00
2019-03-21T01:08:38.477Z,12.00
2019-03-21T01:09:38.463Z,12.00
2019-03-21T01:10:38.452Z,12.00
2019-03-21T01:11:38.483Z,12.00
2019-03-21T01:12:38.428Z,12.00
2019-03-21T01:13:38.419Z,12.00
2019-03-21T01:14:38.407Z,12.00
2019-03-21T01:15:38.396Z,12.00
2019-03-21T01:16:38.387Z,12.00
2019-03-21T01:17:44.970Z,12.00
2019-03-21T01:18:38.360Z,12.00
2019-03-21T01:19:38.349Z,12.00
2019-03-21T01:20:38.337Z,12.00
2019-03-21T01:21:38.323Z,12.00
2019-03-21T01:22:38.314Z,12.00
2019-03-21T01:23:38.318Z,12.00
2019-03-21T01:24:38.288Z,12.00
2019-03-21T01:25:38.279Z,12.00
2019-03-21T01:26:38.263Z,12.00
2019-03-21T01:27:38.252Z,12.00
2019-03-21T01:28:38.244Z,12.00
2019-03-21T01:29:38.275Z,12.00
2019-03-21T01:30:38.220Z,12.00
2019-03-21T01:31:38.207Z,12.00
2019-03-21T01:32:38.197Z,12.00
2019-03-21T01:33:38.184Z,12.00
2019-03-21T01:34:38.175Z,12.00
2019-03-21T01:35:38.169Z,12.00
2019-03-21T01:36:38.152Z,12.00
2019-03-21T01:37:38.139Z,12.00
2019-03-21T01:38:38.129Z,12.00
2019-03-21T01:39:38.158Z,12.00
2019-03-21T01:40:38.143Z,12.00
2019-03-21T01:41:38.093Z,12.00
2019-03-21T01:42:38.081Z,12.00
2019-03-21T01:43:38.065Z,12.00
2019-03-21T01:44:41.176Z,12.00
2019-03-21T01:45:38.046Z,12.00
2019-03-21T01:46:38.044Z,12.00
2019-03-21T01:47:38.025Z,12.00
2019-03-21T01:48:38.013Z,12.00
2019-03-21T01:49:44.089Z,12.00
2019-03-21T01:50:37.990Z,12.00
2019-03-21T01:51:37.995Z,12.00
2019-03-21T01:52:37.975Z,12.00
2019-03-21T01:53:37.951Z,12.00
2019-03-21T01:54:37.942Z,12.00
2019-03-21T01:55:37.932Z,12.00
2019-03-21T01:56:37.915Z,12.00
2019-03-21T01:57:37.919Z,12.00
2019-03-21T01:58:37.894Z,12.00
2019-03-21T01:59:37.884Z,12.00
2019-03-21T02:00:37.872Z,12.00
2019-03-21T02:01:37.863Z,12.00
2019-03-21T02:02:37.999Z,12.00
2019-03-21T02:03:37.837Z,12.00
2019-03-21T02:04:37.827Z,12.00
2019-03-21T02:05:37.817Z,12.00
2019-03-21T02:06:37.801Z,12.00
2019-03-21T02:07:37.790Z,12.00
2019-03-21T02:08:37.798Z,12.00
2019-03-21T02:09:37.772Z,12.00
2019-03-21T02:10:37.754Z,12.00
2019-03-21T02:11:38.882Z,12.00
2019-03-21T02:12:37.733Z,12.00
2019-03-21T02:13:37.721Z,12.00
2019-03-21T02:14:37.715Z,12.00
2019-03-21T02:15:37.696Z,12.00
2019-03-21T02:16:37.686Z,12.00
2019-03-21T02:17:37.674Z,12.00
2019-03-21T02:18:37.662Z,12.00
2019-03-21T02:19:37.692Z,12.00
2019-03-21T02:20:37.639Z,12.00
2019-03-21T02:21:44.012Z,12.00
2019-03-21T02:22:37.617Z,12.00
2019-03-21T02:23:37.605Z,12.00
2019-03-21T02:24:37.592Z,12.00
2019-03-21T02:25:37.595Z,12.00
2019-03-21T02:26:37.576Z,12.00
2019-03-21T02:27:37.563Z,12.00
2019-03-21T02:28:37.547Z,12.00
2019-03-21T02:29:37.534Z,12.00
2019-03-21T02:30:37.562Z,12.00
2019-03-21T02:31:37.513Z,12.00
2019-03-21T02:32:37.504Z,12.00
2019-03-21T02:33:37.483Z,12.00
2019-03-21T02:34:37.484Z,12.00
2019-03-21T02:35:37.468Z,12.00
2019-03-21T02:36:37.494Z,12.00
2019-03-21T02:37:37.447Z,12.00
2019-03-21T02:38:37.428Z,12.00
2019-03-21T02:39:37.421Z,12.00
2019-03-21T02:40:37.401Z,12.00
2019-03-21T02:41:37.391Z,12.00
2019-03-21T02:42:37.395Z,12.00
2019-03-21T02:43:37.369Z,12.00
2019-03-21T02:44:37.465Z,12.00
2019-03-21T02:45:37.345Z,12.00
2019-03-21T02:46:37.344Z,12.00
2019-03-21T02:47:37.322Z,12.00
2019-03-21T02:48:37.319Z,12.00
2019-03-21T02:49:37.296Z,12.00
2019-03-21T02:50:37.288Z,12.00
2019-03-21T02:51:37.276Z,12.00
2019-03-21T02:52:37.270Z,12.00
2019-03-21T02:53:43.562Z,12.00
2019-03-21T02:54:37.240Z,12.00
2019-03-21T02:55:37.227Z,12.00
2019-03-21T02:56:37.220Z,12.00
2019-03-21T02:57:37.212Z,12.00
2019-03-21T02:58:37.190Z,12.00
2019-03-21T02:59:37.204Z,12.00
2019-03-21T03:00:37.175Z,12.00
2019-03-21T03:01:37.161Z,12.00
2019-03-21T03:02:37.394Z,12.00
2019-03-21T03:03:37.135Z,12.00
2019-03-21T03:04:37.122Z,12.00
2019-03-21T03:05:37.152Z,12.00
2019-03-21T03:06:37.100Z,12.00
2019-03-21T03:07:37.095Z,12.00
2019-03-21T03:08:37.074Z,12.00
2019-03-21T03:09:37.079Z,12.00
2019-03-21T03:10:37.057Z,12.00
2019-03-21T03:11:37.047Z,12.00
2019-03-21T03:12:37.040Z,12.00
2019-03-21T03:13:37.018Z,12.00
2019-03-21T03:14:37.012Z,12.00
2019-03-21T03:15:36.992Z,12.00
2019-03-21T03:16:37.027Z,12.00
2019-03-21T03:17:36.975Z,12.00
2019-03-21T03:18:36.957Z,12.00
2019-03-21T03:19:36.963Z,12.00
2019-03-21T03:20:36.934Z,12.00
2019-03-21T03:21:36.931Z,12.00
2019-03-21T03:22:36.919Z,12.00
2019-03-21T03:23:36.903Z,12.00
2019-03-21T03:24:36.914Z,12.00
2019-03-21T03:25:42.975Z,12.00
2019-03-21T03:26:36.871Z,12.00
2019-03-21T03:27:36.901Z,12.00
2019-03-21T03:28:36.848Z,12.00
2019-03-21T03:29:36.832Z,12.00
2019-03-21T03:30:36.826Z,12.00
2019-03-21T03:31:36.811Z,12.00
2019-03-21T03:32:36.799Z,16.00
2019-03-21T03:33:36.858Z,16.00
2019-03-21T03:34:36.772Z,16.00
2019-03-21T03:35:36.764Z,16.00
2019-03-21T03:36:36.749Z,16.00
2019-03-21T03:37:36.738Z,16.00
2019-03-21T03:38:36.768Z,16.00
2019-03-21T03:39:37.163Z,16.00
2019-03-21T03:40:36.712Z,16.00
2019-03-21T03:41:36.694Z,20.00
2019-03-21T03:42:36.683Z,20.00
2019-03-21T03:43:36.671Z,20.00
2019-03-21T03:44:36.700Z,16.00
2019-03-21T03:45:38.458Z,16.00
2019-03-21T03:46:36.633Z,16.00
2019-03-21T03:47:36.625Z,16.00
2019-03-21T03:48:36.613Z,20.00
2019-03-21T03:49:36.603Z,20.00
2019-03-21T03:50:36.629Z,20.00
2019-03-21T03:51:36.576Z,20.00
2019-03-21T03:52:36.561Z,20.00
2019-03-21T03:53:36.555Z,20.00
2019-03-21T03:54:36.539Z,20.00
2019-03-21T03:55:36.601Z,24.00
2019-03-21T03:56:36.558Z,24.00
2019-03-21T03:57:42.889Z,24.00
2019-03-21T03:58:36.496Z,24.00
2019-03-21T03:59:36.500Z,28.00
2019-03-21T04:00:36.467Z,24.00
2019-03-21T04:01:36.465Z,28.00
2019-03-21T04:02:36.463Z,28.00
2019-03-21T04:03:36.491Z,32.00
2019-03-21T04:04:36.421Z,28.00
2019-03-21T04:05:36.415Z,32.00
2019-03-21T04:06:36.441Z,32.00
2019-03-21T04:07:36.394Z,36.00
2019-03-21T04:08:36.387Z,32.00
2019-03-21T04:09:36.366Z,40.00
2019-03-21T04:10:36.355Z,36.00
2019-03-21T04:11:36.339Z,44.00
2019-03-21T04:12:36.337Z,44.00
2019-03-21T04:13:36.328Z,44.00
2019-03-21T04:14:36.306Z,48.00
2019-03-21T04:15:51.239Z,48.00
2019-03-21T04:16:37.281Z,52.00
2019-03-21T04:17:36.311Z,52.00
2019-03-21T04:18:36.263Z,56.00
2019-03-21T04:19:36.249Z,56.00
2019-03-21T04:20:36.239Z,60.00
2019-03-21T04:21:36.226Z,60.00
2019-03-21T04:22:36.212Z,64.00
2019-03-21T04:23:36.211Z,64.00
2019-03-21T04:24:36.195Z,68.00
2019-03-21T04:25:36.183Z,68.00
2019-03-21T04:26:36.168Z,72.00
2019-03-21T04:27:36.159Z,76.00
2019-03-21T04:28:36.154Z,80.00
2019-03-21T04:29:42.225Z,80.00
2019-03-21T04:30:36.156Z,144.00
2019-03-21T04:31:36.108Z,152.00
2019-03-21T04:32:36.103Z,156.00
2019-03-21T04:33:36.091Z,156.00
2019-03-21T04:34:36.076Z,156.00
2019-03-21T04:35:36.061Z,164.00
2019-03-21T04:36:36.062Z,164.00
2019-03-21T04:37:36.086Z,168.00
2019-03-21T04:38:36.031Z,108.00
2019-03-21T04:39:36.022Z,112.00
2019-03-21T04:40:36.001Z,120.00
2019-03-21T04:41:36.077Z,140.00
2019-03-21T04:42:35.978Z,168.00
2019-03-21T04:43:35.969Z,192.00
2019-03-21T04:44:35.953Z,228.00
2019-03-21T04:45:35.945Z,268.00
2019-03-21T04:46:35.933Z,328.00
2019-03-21T04:47:35.962Z,408.00
2019-03-21T04:48:35.912Z,488.00
2019-03-21T04:49:35.902Z,552.00
2019-03-21T04:50:35.889Z,580.00
2019-03-21T04:51:35.881Z,608.00
2019-03-21T04:52:35.861Z,628.00
2019-03-21T04:53:35.863Z,656.00
2019-03-21T04:54:35.843Z,676.00
2019-03-21T04:55:35.832Z,692.00
2019-03-21T04:56:35.819Z,712.00
2019-03-21T04:57:35.804Z,732.00
2019-03-21T04:58:35.812Z,752.00
2019-03-21T04:59:35.782Z,772.00
2019-03-21T05:00:35.772Z,792.00
2019-03-21T05:01:41.843Z,808.00
2019-03-21T05:02:35.744Z,776.00
2019-03-21T05:03:35.741Z,860.00
2019-03-21T05:04:35.753Z,884.00
2019-03-21T05:05:35.716Z,912.00
2019-03-21T05:06:35.698Z,936.00
2019-03-21T05:07:35.688Z,956.00
2019-03-21T05:08:35.675Z,944.00
2019-03-21T05:09:35.665Z,1016.00
2019-03-21T05:10:35.697Z,1032.00
2019-03-21T05:11:35.644Z,1060.00
2019-03-21T05:12:35.638Z,1088.00
2019-03-21T05:13:35.622Z,1128.00
2019-03-21T05:14:35.611Z,1168.00
2019-03-21T05:15:35.595Z,1232.00
2019-03-21T05:16:35.595Z,1300.00
2019-03-21T05:17:35.570Z,1368.00
2019-03-21T05:18:35.567Z,1444.00
2019-03-21T05:19:35.555Z,1544.00
2019-03-21T05:20:35.582Z,1636.00
2019-03-21T05:21:35.538Z,1716.00
2019-03-21T05:22:35.518Z,1856.00
2019-03-21T05:23:35.503Z,1960.00
2019-03-21T05:24:35.495Z,2092.00
2019-03-21T05:25:35.478Z,2220.00
2019-03-21T05:26:35.509Z,2324.00
2019-03-21T05:27:35.455Z,2388.00
2019-03-21T05:28:35.449Z,2544.00
2019-03-21T05:29:35.435Z,2636.00
2019-03-21T05:30:35.422Z,2748.00
2019-03-21T05:31:35.417Z,2824.00
2019-03-21T05:32:35.440Z,2904.00
2019-03-21T05:33:41.780Z,2976.00
2019-03-21T05:34:35.376Z,3036.00
2019-03-21T05:35:35.368Z,3072.00
2019-03-21T05:36:35.356Z,3124.00
2019-03-21T05:37:35.345Z,3152.00
2019-03-21T05:38:35.351Z,3192.00
2019-03-21T05:39:35.324Z,3216.00
2019-03-21T05:40:35.308Z,3260.00
2019-03-21T05:41:35.298Z,3268.00
2019-03-21T05:42:35.284Z,3292.00
2019-03-21T05:43:35.280Z,3300.00
2019-03-21T05:44:35.278Z,3328.00
2019-03-21T05:45:35.255Z,3316.00
2019-03-21T05:46:35.240Z,3300.00
2019-03-21T05:47:35.233Z,3252.00
2019-03-21T05:48:35.228Z,3140.00
2019-03-21T05:49:35.243Z,2968.00
2019-03-21T05:50:35.195Z,2768.00
2019-03-21T05:51:35.181Z,2548.00
2019-03-21T05:52:35.176Z,2360.00
2019-03-21T05:53:35.165Z,2204.00
2019-03-21T05:54:35.154Z,2104.00
2019-03-21T05:55:35.148Z,1996.00
2019-03-21T05:56:35.131Z,1968.00
2019-03-21T05:57:35.116Z,1964.00
2019-03-21T05:58:35.101Z,1984.00
2019-03-21T05:59:35.093Z,1964.00
2019-03-21T06:00:35.110Z,1980.00
2019-03-21T06:01:35.069Z,1968.00
2019-03-21T06:02:35.057Z,2004.00
2019-03-21T06:03:35.058Z,2040.00
2019-03-21T06:04:35.040Z,2056.00
2019-03-21T06:05:41.155Z,2048.00
2019-03-21T06:06:35.012Z,2092.00
2019-03-21T06:07:35.001Z,2084.00
2019-03-21T06:08:34.991Z,2280.00
2019-03-21T06:09:34.986Z,2416.00
2019-03-21T06:10:34.971Z,2552.00
2019-03-21T06:11:34.968Z,2700.00
2019-03-21T06:12:34.946Z,2828.00
2019-03-21T06:13:34.938Z,2956.00
2019-03-21T06:14:34.928Z,2984.00
2019-03-21T06:15:34.911Z,3028.00
2019-03-21T06:16:37.758Z,3092.00
2019-03-21T06:17:34.895Z,3348.00
2019-03-21T06:18:34.883Z,3472.00
2019-03-21T06:19:34.870Z,3644.00
2019-03-21T06:20:34.855Z,3720.00
2019-03-21T06:21:34.845Z,3828.00
2019-03-21T06:22:34.870Z,3824.00
2019-03-21T06:23:34.820Z,3944.00
2019-03-21T06:24:34.809Z,4004.00
2019-03-21T06:25:34.802Z,3932.00
2019-03-21T06:26:34.790Z,3876.00
2019-03-21T06:27:34.782Z,3976.00
2019-03-21T06:28:34.772Z,4068.00
2019-03-21T06:29:34.754Z,4248.00
2019-03-21T06:30:34.740Z,4416.00
2019-03-21T06:31:34.736Z,4640.00
2019-03-21T06:32:34.728Z,4792.00
2019-03-21T06:33:34.752Z,5004.00
2019-03-21T06:34:34.697Z,5144.00
2019-03-21T06:35:34.693Z,5212.00
2019-03-21T06:36:34.677Z,5408.00
2019-03-21T06:37:40.758Z,5380.00
2019-03-21T06:38:34.651Z,5516.00
2019-03-21T06:39:34.665Z,5396.00
2019-03-21T06:40:34.627Z,2508.00
2019-03-21T06:41:34.623Z,5576.00
2019-03-21T06:42:34.609Z,5572.00
2019-03-21T06:43:34.597Z,5524.00
2019-03-21T06:44:34.631Z,5484.00
2019-03-21T06:45:34.571Z,4620.00
2019-03-21T06:46:34.567Z,5316.00
2019-03-21T06:47:34.552Z,5212.00
2019-03-21T06:48:34.543Z,5080.00
2019-03-21T06:49:34.529Z,5028.00
2019-03-21T06:50:34.528Z,4744.00
2019-03-21T06:51:34.515Z,4448.00
2019-03-21T06:52:34.500Z,4144.00
2019-03-21T06:53:34.487Z,3808.00
2019-03-21T06:54:34.473Z,2808.00
2019-03-21T06:55:34.503Z,2996.00
2019-03-21T06:56:34.449Z,2820.00
2019-03-21T06:57:34.436Z,2576.00
2019-03-21T06:58:34.433Z,2444.00
2019-03-21T06:59:34.415Z,2320.00
2019-03-21T07:00:34.408Z,1672.00
2019-03-21T07:01:34.399Z,2032.00
2019-03-21T07:02:34.386Z,1812.00
2019-03-21T07:03:34.370Z,2044.00
2019-03-21T07:04:34.364Z,2016.00
2019-03-21T07:05:34.347Z,1764.00
2019-03-21T07:06:34.394Z,1748.00
2019-03-21T07:07:34.325Z,1504.00
2019-03-21T07:08:34.321Z,1580.00
2019-03-21T07:09:40.703Z,1624.00
2019-03-21T07:10:34.290Z,1788.00
2019-03-21T07:11:34.280Z,1808.00
2019-03-21T07:12:34.290Z,1640.00
2019-03-21T07:13:34.265Z,1920.00
2019-03-21T07:14:34.248Z,1896.00
2019-03-21T07:15:34.234Z,1764.00
2019-03-21T07:16:34.221Z,1696.00
2019-03-21T07:17:34.216Z,1748.00
2019-03-21T07:18:34.237Z,1628.00
2019-03-21T07:19:34.184Z,1532.00
2019-03-21T07:20:34.181Z,1460.00
2019-03-21T07:21:34.163Z,1404.00
2019-03-21T07:22:34.158Z,1308.00
2019-03-21T07:23:34.144Z,1464.00
2019-03-21T07:24:34.142Z,1148.00
2019-03-21T07:25:34.118Z,1108.00
2019-03-21T07:26:34.112Z,1088.00
2019-03-21T07:27:34.096Z,1040.00
2019-03-21T07:28:34.086Z,1048.00
2019-03-21T07:29:34.095Z,1044.00
2019-03-21T07:30:34.066Z,1068.00
2019-03-21T07:31:34.055Z,1012.00
2019-03-21T07:32:34.043Z,876.00
2019-03-21T07:33:34.028Z,840.00
2019-03-21T07:34:34.021Z,816.00
2019-03-21T07:35:34.048Z,808.00
2019-03-21T07:36:33.996Z,800.00
2019-03-21T07:37:33.987Z,792.00
2019-03-21T07:38:33.976Z,816.00
2019-03-21T07:39:33.964Z,856.00
2019-03-21T07:40:33.950Z,816.00
2019-03-21T07:41:40.207Z,760.00
2019-03-21T07:42:33.924Z,728.00
2019-03-21T07:43:33.916Z,728.00
2019-03-21T07:44:33.905Z,716.00
2019-03-21T07:45:33.896Z,752.00
2019-03-21T07:46:33.890Z,884.00
2019-03-21T07:47:33.882Z,832.00
2019-03-21T07:48:33.858Z,792.00
2019-03-21T07:49:33.849Z,848.00
2019-03-21T07:50:33.831Z,852.00
2019-03-21T07:51:33.827Z,916.00
2019-03-21T07:52:33.823Z,880.00
2019-03-21T07:53:33.799Z,940.00
2019-03-21T07:54:33.790Z,816.00
2019-03-21T07:55:33.789Z,860.00
2019-03-21T07:56:33.771Z,924.00
2019-03-21T07:57:33.794Z,1160.00
2019-03-21T07:58:33.741Z,828.00
2019-03-21T07:59:33.728Z,800.00
2019-03-21T08:00:33.722Z,704.00
2019-03-21T08:01:33.710Z,804.00
2019-03-21T08:02:33.697Z,760.00
2019-03-21T08:03:33.731Z,756.00
2019-03-21T08:04:33.720Z,780.00
2019-03-21T08:05:40.339Z,868.00
2019-03-21T08:06:34.652Z,808.00
2019-03-21T08:07:33.636Z,820.00
2019-03-21T08:08:33.635Z,800.00
2019-03-21T08:09:33.715Z,824.00
2019-03-21T08:10:33.605Z,744.00
2019-03-21T08:11:33.592Z,928.00
2019-03-21T08:12:33.584Z,1204.00
2019-03-21T08:13:39.958Z,1188.00
2019-03-21T08:14:33.556Z,936.00
2019-03-21T08:15:33.555Z,980.00
2019-03-21T08:16:33.537Z,956.00
2019-03-21T08:17:33.522Z,904.00
2019-03-21T08:18:33.514Z,948.00
2019-03-21T08:19:33.500Z,920.00
2019-03-21T08:20:33.498Z,952.00
2019-03-21T08:21:33.479Z,912.00
2019-03-21T08:22:33.471Z,976.00
2019-03-21T08:23:33.454Z,736.00
2019-03-21T08:24:33.443Z,936.00
2019-03-21T08:25:33.455Z,880.00
2019-03-21T08:26:33.417Z,492.00
2019-03-21T08:27:33.412Z,896.00
2019-03-21T08:28:33.400Z,1036.00
2019-03-21T08:29:33.390Z,1060.00
2019-03-21T08:30:33.373Z,936.00
2019-03-21T08:31:33.408Z,972.00
2019-03-21T08:32:33.355Z,608.00
2019-03-21T08:33:33.341Z,1032.00
2019-03-21T08:34:33.333Z,1000.00
2019-03-21T08:35:33.314Z,984.00
2019-03-21T08:36:33.302Z,1028.00
2019-03-21T08:37:33.341Z,1016.00
2019-03-21T08:38:33.282Z,984.00
2019-03-21T08:39:33.270Z,936.00
2019-03-21T08:40:33.259Z,788.00
2019-03-21T08:41:33.252Z,644.00
2019-03-21T08:42:33.236Z,924.00
2019-03-21T08:43:33.234Z,916.00
2019-03-21T08:44:33.212Z,824.00
2019-03-21T08:45:39.296Z,892.00
2019-03-21T08:46:33.192Z,892.00
2019-03-21T08:47:33.246Z,872.00
2019-03-21T08:48:33.226Z,860.00
2019-03-21T08:49:33.158Z,892.00
2019-03-21T08:50:33.144Z,936.00
2019-03-21T08:51:33.129Z,988.00
2019-03-21T08:52:33.116Z,960.00
2019-03-21T08:53:33.118Z,880.00
2019-03-21T08:54:34.981Z,604.00
2019-03-21T08:55:33.090Z,860.00
2019-03-21T08:56:33.073Z,828.00
2019-03-21T08:57:33.058Z,844.00
2019-03-21T08:58:33.067Z,840.00
2019-03-21T08:59:33.042Z,776.00
2019-03-21T09:00:34.321Z,788.00
2019-03-21T09:01:33.013Z,760.00
2019-03-21T09:02:33.004Z,772.00
2019-03-21T09:03:32.993Z,760.00
2019-03-21T09:04:33.027Z,776.00
2019-03-21T09:05:32.972Z,752.00
2019-03-21T09:06:32.958Z,772.00
2019-03-21T09:07:32.945Z,792.00
2019-03-21T09:08:32.941Z,788.00
2019-03-21T09:09:32.919Z,760.00
2019-03-21T09:10:34.499Z,740.00
2019-03-21T09:11:32.895Z,716.00
2019-03-21T09:12:32.885Z,756.00
2019-03-21T09:13:32.881Z,760.00
2019-03-21T09:14:32.907Z,772.00
2019-03-21T09:15:32.854Z,768.00
2019-03-21T09:16:32.837Z,752.00
2019-03-21T09:17:38.924Z,756.00
2019-03-21T09:18:32.823Z,752.00
2019-03-21T09:19:32.807Z,768.00
2019-03-21T09:20:32.832Z,780.00
2019-03-21T09:21:32.779Z,776.00
2019-03-21T09:22:32.774Z,768.00
2019-03-21T09:23:32.760Z,768.00
2019-03-21T09:24:32.755Z,792.00
2019-03-21T09:25:32.740Z,816.00
2019-03-21T09:26:32.760Z,776.00
2019-03-21T09:27:32.713Z,772.00
2019-03-21T09:28:32.705Z,780.00
2019-03-21T09:29:32.694Z,784.00
2019-03-21T09:30:32.674Z,820.00
2019-03-21T09:31:32.664Z,832.00
2019-03-21T09:32:32.667Z,812.00
2019-03-21T09:33:32.645Z,832.00
2019-03-21T09:34:32.634Z,832.00
2019-03-21T09:35:32.621Z,808.00
2019-03-21T09:36:32.606Z,800.00
2019-03-21T09:37:32.599Z,796.00
2019-03-21T09:38:32.586Z,792.00
2019-03-21T09:39:32.574Z,796.00
2019-03-21T09:40:32.560Z,824.00
2019-03-21T09:41:32.569Z,828.00
2019-03-21T09:42:32.533Z,828.00
2019-03-21T09:43:32.525Z,808.00
2019-03-21T09:44:32.562Z,796.00
2019-03-21T09:45:32.503Z,816.00
2019-03-21T09:46:32.496Z,816.00
2019-03-21T09:47:32.485Z,820.00
2019-03-21T09:48:32.499Z,824.00
2019-03-21T09:49:38.854Z,828.00
2019-03-21T09:50:32.445Z,824.00
2019-03-21T09:51:32.436Z,820.00
2019-03-21T09:52:32.457Z,812.00
2019-03-21T09:53:32.410Z,816.00
2019-03-21T09:54:32.396Z,812.00
2019-03-21T09:55:32.387Z,808.00
2019-03-21T09:56:32.380Z,820.00
2019-03-21T09:57:32.366Z,820.00
2019-03-21T09:58:32.753Z,816.00
2019-03-21T09:59:32.342Z,816.00
2019-03-21T10:00:32.353Z,816.00
2019-03-21T10:01:32.316Z,820.00
2019-03-21T10:02:32.306Z,812.00
2019-03-21T10:03:32.297Z,812.00
2019-03-21T10:04:32.314Z,816.00
2019-03-21T10:05:32.269Z,812.00
2019-03-21T10:06:32.257Z,812.00
2019-03-21T10:07:32.249Z,784.00
2019-03-21T10:08:32.235Z,800.00
2019-03-21T10:09:32.218Z,788.00
2019-03-21T10:10:32.245Z,792.00
2019-03-21T10:11:32.196Z,800.00
2019-03-21T10:12:32.188Z,804.00
2019-03-21T10:13:32.174Z,796.00
2019-03-21T10:14:32.167Z,796.00
2019-03-21T10:15:32.154Z,764.00
2019-03-21T10:16:32.144Z,728.00
2019-03-21T10:17:32.124Z,776.00
2019-03-21T10:18:32.115Z,784.00
2019-03-21T10:19:32.106Z,780.00
2019-03-21T10:20:32.096Z,744.00
2019-03-21T10:21:43.367Z,768.00
2019-03-21T10:22:33.068Z,756.00
2019-03-21T10:23:32.063Z,772.00
2019-03-21T10:24:32.042Z,764.00
2019-03-21T10:25:32.035Z,772.00
2019-03-21T10:26:32.019Z,772.00
2019-03-21T10:27:32.019Z,768.00
2019-03-21T10:28:32.001Z,768.00
2019-03-21T10:29:31.990Z,764.00
2019-03-21T10:30:32.018Z,764.00
2019-03-21T10:31:31.964Z,760.00
2019-03-21T10:32:31.954Z,756.00
2019-03-21T10:33:31.940Z,756.00
2019-03-21T10:34:31.931Z,748.00
2019-03-21T10:35:32.760Z,748.00
2019-03-21T10:36:31.932Z,744.00
2019-03-21T10:37:31.898Z,744.00
2019-03-21T10:38:31.892Z,740.00
2019-03-21T10:39:31.868Z,744.00
2019-03-21T10:40:31.864Z,736.00
2019-03-21T10:41:31.884Z,736.00
2019-03-21T10:42:31.839Z,732.00
2019-03-21T10:43:31.826Z,736.00
2019-03-21T10:44:31.816Z,732.00
2019-03-21T10:45:31.802Z,728.00
2019-03-21T10:46:31.788Z,724.00
2019-03-21T10:47:31.813Z,716.00
2019-03-21T10:48:31.769Z,720.00
2019-03-21T10:49:31.755Z,712.00
2019-03-21T10:50:31.743Z,712.00
2019-03-21T10:51:31.735Z,712.00
2019-03-21T10:52:31.725Z,712.00
2019-03-21T10:53:38.457Z,708.00
2019-03-21T10:54:31.697Z,704.00
2019-03-21T10:55:31.683Z,704.00
2019-03-21T10:56:31.677Z,704.00
2019-03-21T10:57:31.665Z,700.00
2019-03-21T10:58:31.718Z,700.00
2019-03-21T10:59:31.651Z,692.00
2019-03-21T11:00:31.624Z,688.00
2019-03-21T11:01:31.630Z,680.00
2019-03-21T11:02:31.615Z,664.00
2019-03-21T11:03:31.594Z,640.00
2019-03-21T11:04:31.580Z,636.00
2019-03-21T11:05:31.581Z,632.00
2019-03-21T11:06:31.565Z,624.00
2019-03-21T11:07:31.567Z,624.00
2019-03-21T11:08:31.532Z,624.00
2019-03-21T11:09:31.523Z,628.00
2019-03-21T11:10:31.514Z,624.00
2019-03-21T11:11:31.503Z,616.00
2019-03-21T11:12:31.506Z,628.00
2019-03-21T11:13:31.481Z,640.00
2019-03-21T11:14:31.466Z,644.00
2019-03-21T11:15:31.450Z,644.00
2019-03-21T11:16:31.644Z,652.00
2019-03-21T11:17:31.437Z,648.00
2019-03-21T11:18:36.104Z,652.00
2019-03-21T11:19:32.408Z,644.00
2019-03-21T11:20:31.402Z,648.00
2019-03-21T11:21:31.386Z,640.00
2019-03-21T11:22:31.370Z,632.00
2019-03-21T11:23:31.360Z,632.00
2019-03-21T11:24:31.387Z,632.00
2019-03-21T11:25:37.723Z,624.00
2019-03-21T11:26:31.332Z,604.00
2019-03-21T11:27:31.316Z,592.00
2019-03-21T11:28:31.307Z,596.00
2019-03-21T11:29:31.295Z,604.00
2019-03-21T11:30:31.294Z,568.00
2019-03-21T11:31:31.272Z,548.00
2019-03-21T11:32:31.262Z,524.00
2019-03-21T11:33:31.249Z,572.00
2019-03-21T11:34:31.238Z,524.00
2019-03-21T11:35:31.325Z,544.00
2019-03-21T11:36:38.211Z,460.00
2019-03-21T11:37:32.195Z,552.00
2019-03-21T11:38:31.229Z,456.00
2019-03-21T11:39:31.175Z,488.00
2019-03-21T11:40:31.174Z,468.00
2019-03-21T11:41:31.188Z,456.00
2019-03-21T11:42:31.144Z,460.00
2019-03-21T11:43:31.132Z,420.00
2019-03-21T11:44:31.116Z,468.00
2019-03-21T11:45:31.104Z,416.00
2019-03-21T11:46:31.110Z,460.00
2019-03-21T11:47:41.424Z,560.00
2019-03-21T11:48:32.075Z,564.00
2019-03-21T11:49:31.065Z,532.00
2019-03-21T11:50:31.092Z,516.00
2019-03-21T11:51:31.051Z,480.00
2019-03-21T11:52:31.038Z,488.00
2019-03-21T11:53:31.019Z,488.00
2019-03-21T11:54:31.002Z,464.00
2019-03-21T11:55:30.994Z,444.00
2019-03-21T11:56:31.050Z,532.00
2019-03-21T11:57:37.056Z,544.00
2019-03-21T11:58:31.010Z,556.00
2019-03-21T11:59:41.632Z,560.00
2019-03-21T12:00:42.988Z,568.00
2019-03-21T12:01:31.946Z,556.00
2019-03-21T12:02:30.910Z,560.00
2019-03-21T12:03:30.910Z,564.00
2019-03-21T12:04:30.887Z,556.00
2019-03-21T12:05:30.878Z,552.00
2019-03-21T12:06:30.865Z,552.00
2019-03-21T12:07:30.898Z,556.00
2019-03-21T12:08:30.844Z,548.00
2019-03-21T12:09:30.832Z,540.00
2019-03-21T12:10:30.817Z,504.00
2019-03-21T12:11:30.811Z,516.00
2019-03-21T12:12:30.793Z,504.00
2019-03-21T12:13:30.797Z,516.00
2019-03-21T12:14:30.771Z,516.00
2019-03-21T12:15:30.760Z,520.00
2019-03-21T12:16:30.749Z,500.00
2019-03-21T12:17:30.748Z,476.00
2019-03-21T12:18:30.723Z,480.00
2019-03-21T12:19:30.722Z,412.00
2019-03-21T12:20:30.705Z,480.00
2019-03-21T12:21:30.696Z,512.00
2019-03-21T12:22:30.681Z,504.00
2019-03-21T12:23:30.673Z,460.00
2019-03-21T12:24:30.658Z,476.00
2019-03-21T12:25:30.647Z,472.00
2019-03-21T12:26:30.629Z,476.00
2019-03-21T12:27:30.622Z,476.00
2019-03-21T12:28:30.625Z,452.00
2019-03-21T12:29:36.689Z,500.00
2019-03-21T12:30:30.592Z,508.00
2019-03-21T12:31:30.574Z,492.00
2019-03-21T12:32:30.564Z,476.00